createdAt,value
2019-05-25T00:00:46.727Z,4.00
2019-05-25T00:01:46.753Z,4.00
2019-05-25T00:02:46.706Z,4.00
2019-05-25T00:03:57.021Z,4.00
2019-05-25T00:04:46.682Z,4.00
2019-05-25T00:05:46.670Z,4.00
2019-05-25T00:06:46.656Z,4.00
2019-05-25T00:07:46.649Z,4.00
2019-05-25T00:08:46.630Z,4.00
2019-05-25T00:09:48.540Z,4.00
2019-05-25T00:10:46.617Z,4.00
2019-05-25T00:11:46.609Z,4.00
2019-05-25T00:12:46.617Z,4.00
2019-05-25T00:13:46.570Z,4.00
2019-05-25T00:14:46.569Z,4.00
2019-05-25T00:15:46.572Z,4.00
2019-05-25T00:16:46.547Z,4.00
2019-05-25T00:17:46.528Z,4.00
2019-05-25T00:18:46.575Z,4.00
2019-05-25T00:19:46.510Z,4.00
2019-05-25T00:20:46.513Z,4.00
2019-05-25T00:21:46.495Z,4.00
2019-05-25T00:22:46.477Z,4.00
2019-05-25T00:23:46.465Z,4.00
2019-05-25T00:24:46.499Z,4.00
2019-05-25T00:25:46.452Z,8.00
2019-05-25T00:26:46.428Z,8.00
2019-05-25T00:27:46.428Z,8.00
2019-05-25T00:28:46.413Z,8.00
2019-05-25T00:29:46.418Z,8.00
2019-05-25T00:30:46.389Z,4.00
2019-05-25T00:31:46.379Z,4.00
2019-05-25T00:32:46.383Z,4.00
2019-05-25T00:33:46.381Z,4.00
2019-05-25T00:34:56.742Z,4.00
2019-05-25T00:35:46.333Z,4.00
2019-05-25T00:36:46.333Z,4.00
2019-05-25T00:37:46.322Z,4.00
2019-05-25T00:38:46.352Z,4.00
2019-05-25T00:39:46.302Z,4.00
2019-05-25T00:40:46.301Z,4.00
2019-05-25T00:41:46.274Z,4.00
2019-05-25T00:42:46.262Z,4.00
2019-05-25T00:43:46.261Z,4.00
2019-05-25T00:44:46.282Z,4.00
2019-05-25T00:45:46.234Z,4.00
2019-05-25T00:46:46.226Z,4.00
2019-05-25T00:47:46.216Z,4.00
2019-05-25T00:48:46.193Z,4.00
2019-05-25T00:49:46.184Z,4.00
2019-05-25T00:50:46.218Z,4.00
2019-05-25T00:51:46.167Z,4.00
2019-05-25T00:52:46.157Z,8.00
2019-05-25T00:53:46.134Z,8.00
2019-05-25T00:54:46.138Z,8.00
2019-05-25T00:55:46.135Z,8.00
2019-05-25T00:56:46.114Z,8.00
2019-05-25T00:57:46.106Z,4.00
2019-05-25T00:58:46.093Z,4.00
2019-05-25T00:59:46.083Z,4.00
2019-05-25T01:00:46.077Z,4.00
2019-05-25T01:01:46.088Z,4.00
2019-05-25T01:02:46.049Z,4.00
2019-05-25T01:03:46.036Z,4.00
2019-05-25T01:04:46.032Z,4.00
2019-05-25T01:05:57.030Z,8.00
2019-05-25T01:06:46.009Z,8.00
2019-05-25T01:07:46.020Z,8.00
2019-05-25T01:08:45.998Z,8.00
2019-05-25T01:09:45.968Z,8.00
2019-05-25T01:10:45.966Z,8.00
2019-05-25T01:11:45.949Z,8.00
2019-05-25T01:12:45.949Z,8.00
2019-05-25T01:13:45.927Z,8.00
2019-05-25T01:14:45.950Z,8.00
2019-05-25T01:15:45.897Z,8.00
2019-05-25T01:16:45.913Z,8.00
2019-05-25T01:17:45.927Z,8.00
2019-05-25T01:18:45.880Z,8.00
2019-05-25T01:19:45.858Z,8.00
2019-05-25T01:20:45.855Z,8.00
2019-05-25T01:21:45.851Z,8.00
2019-05-25T01:22:45.830Z,8.00
2019-05-25T01:23:45.829Z,8.00
2019-05-25T01:24:45.820Z,8.00
2019-05-25T01:25:45.799Z,8.00
2019-05-25T01:26:45.791Z,8.00
2019-05-25T01:27:45.794Z,8.00
2019-05-25T01:28:45.783Z,8.00
2019-05-25T01:29:45.759Z,8.00
2019-05-25T01:30:45.750Z,8.00
2019-05-25T01:31:45.739Z,8.00
2019-05-25T01:32:45.731Z,8.00
2019-05-25T01:33:45.719Z,12.00
2019-05-25T01:34:45.710Z,12.00
2019-05-25T01:35:45.689Z,8.00
2019-05-25T01:36:55.607Z,8.00
2019-05-25T01:37:48.501Z,8.00
2019-05-25T01:38:45.816Z,8.00
2019-05-25T01:39:45.654Z,12.00
2019-05-25T01:40:45.649Z,12.00
2019-05-25T01:41:45.625Z,12.00
2019-05-25T01:42:45.616Z,8.00
2019-05-25T01:43:45.617Z,12.00
2019-05-25T01:44:45.605Z,12.00
2019-05-25T01:45:45.588Z,12.00
2019-05-25T01:46:45.576Z,12.00
2019-05-25T01:47:45.566Z,12.00
2019-05-25T01:48:45.564Z,12.00
2019-05-25T01:49:45.561Z,12.00
2019-05-25T01:50:45.537Z,12.00
2019-05-25T01:51:45.526Z,12.00
2019-05-25T01:52:45.518Z,12.00
2019-05-25T01:53:45.516Z,12.00
2019-05-25T01:54:58.857Z,12.00
2019-05-25T01:55:46.555Z,16.00
2019-05-25T01:56:45.466Z,12.00
2019-05-25T01:57:45.455Z,12.00
2019-05-25T01:58:45.447Z,16.00
2019-05-25T01:59:45.438Z,16.00
2019-05-25T02:00:45.427Z,16.00
2019-05-25T02:01:46.090Z,16.00
2019-05-25T02:02:45.399Z,16.00
2019-05-25T02:03:45.386Z,20.00
2019-05-25T02:04:45.387Z,20.00
2019-05-25T02:05:45.397Z,20.00
2019-05-25T02:06:45.366Z,20.00
2019-05-25T02:07:55.432Z,24.00
2019-05-25T02:08:45.341Z,20.00
2019-05-25T02:09:45.321Z,20.00
2019-05-25T02:10:45.362Z,20.00
2019-05-25T02:11:45.314Z,24.00
2019-05-25T02:12:45.303Z,24.00
2019-05-25T02:13:45.280Z,24.00
2019-05-25T02:14:45.268Z,24.00
2019-05-25T02:15:45.274Z,28.00
2019-05-25T02:16:45.305Z,28.00
2019-05-25T02:17:45.243Z,32.00
2019-05-25T02:18:45.826Z,28.00
2019-05-25T02:19:45.221Z,28.00
2019-05-25T02:20:45.213Z,28.00
2019-05-25T02:21:45.201Z,24.00
2019-05-25T02:22:45.213Z,24.00
2019-05-25T02:23:45.183Z,28.00
2019-05-25T02:24:45.162Z,24.00
2019-05-25T02:25:45.163Z,28.00
2019-05-25T02:26:45.153Z,24.00
2019-05-25T02:27:45.132Z,28.00
2019-05-25T02:28:45.133Z,32.00
2019-05-25T02:29:45.111Z,36.00
2019-05-25T02:30:45.115Z,40.00
2019-05-25T02:31:45.093Z,40.00
2019-05-25T02:32:45.072Z,40.00
2019-05-25T02:33:45.062Z,40.00
2019-05-25T02:34:45.070Z,40.00
2019-05-25T02:35:45.045Z,40.00
2019-05-25T02:36:45.032Z,36.00
2019-05-25T02:37:45.037Z,36.00
2019-05-25T02:38:55.581Z,36.00
2019-05-25T02:39:45.011Z,36.00
2019-05-25T02:40:45.003Z,40.00
2019-05-25T02:41:44.978Z,36.00
2019-05-25T02:42:45.006Z,40.00
2019-05-25T02:43:44.973Z,40.00
2019-05-25T02:44:45.023Z,40.00
2019-05-25T02:45:44.955Z,44.00
2019-05-25T02:46:44.919Z,40.00
2019-05-25T02:47:44.935Z,40.00
2019-05-25T02:48:44.907Z,40.00
2019-05-25T02:49:44.900Z,44.00
2019-05-25T02:50:44.891Z,48.00
2019-05-25T02:51:44.880Z,64.00
2019-05-25T02:52:44.873Z,84.00
2019-05-25T02:53:44.870Z,92.00
2019-05-25T02:54:44.882Z,96.00
2019-05-25T02:55:44.829Z,100.00
2019-05-25T02:56:44.819Z,96.00
2019-05-25T02:57:44.812Z,88.00
2019-05-25T02:58:44.800Z,92.00
2019-05-25T02:59:44.789Z,92.00
2019-05-25T03:00:44.805Z,104.00
2019-05-25T03:01:44.770Z,120.00
2019-05-25T03:02:44.816Z,144.00
2019-05-25T03:03:44.770Z,184.00
2019-05-25T03:04:44.748Z,208.00
2019-05-25T03:05:44.950Z,212.00
2019-05-25T03:06:44.723Z,216.00
2019-05-25T03:07:44.730Z,192.00
2019-05-25T03:08:44.702Z,172.00
2019-05-25T03:09:55.197Z,168.00
2019-05-25T03:10:44.676Z,160.00
2019-05-25T03:11:44.677Z,148.00
2019-05-25T03:12:44.649Z,144.00
2019-05-25T03:13:44.656Z,148.00
2019-05-25T03:14:44.641Z,148.00
2019-05-25T03:15:44.637Z,144.00
2019-05-25T03:16:44.639Z,144.00
2019-05-25T03:17:44.600Z,132.00
2019-05-25T03:18:44.586Z,128.00
2019-05-25T03:19:44.577Z,140.00
2019-05-25T03:20:44.568Z,156.00
2019-05-25T03:21:44.555Z,172.00
2019-05-25T03:22:44.600Z,212.00
2019-05-25T03:23:44.539Z,276.00
2019-05-25T03:24:44.531Z,264.00
2019-05-25T03:25:49.435Z,244.00
2019-05-25T03:26:45.509Z,228.00
2019-05-25T03:27:44.487Z,232.00
2019-05-25T03:28:44.497Z,236.00
2019-05-25T03:29:44.487Z,272.00
2019-05-25T03:30:44.462Z,268.00
2019-05-25T03:31:44.450Z,324.00
2019-05-25T03:32:44.439Z,296.00
2019-05-25T03:33:44.440Z,280.00
2019-05-25T03:34:44.428Z,296.00
2019-05-25T03:35:44.411Z,308.00
2019-05-25T03:36:44.389Z,276.00
2019-05-25T03:37:44.391Z,256.00
2019-05-25T03:38:44.398Z,288.00
2019-05-25T03:39:44.379Z,252.00
2019-05-25T03:40:56.417Z,256.00
2019-05-25T03:41:44.346Z,224.00
2019-05-25T03:42:44.327Z,204.00
2019-05-25T03:43:44.338Z,208.00
2019-05-25T03:44:44.337Z,236.00
2019-05-25T03:45:44.297Z,300.00
2019-05-25T03:46:44.296Z,396.00
2019-05-25T03:47:44.267Z,420.00
2019-05-25T03:48:44.270Z,340.00
2019-05-25T03:49:44.303Z,356.00
2019-05-25T03:50:44.248Z,180.00
2019-05-25T03:51:44.251Z,152.00
2019-05-25T03:52:44.232Z,128.00
2019-05-25T03:53:44.219Z,124.00
2019-05-25T03:54:44.198Z,124.00
2019-05-25T03:55:44.211Z,124.00
2019-05-25T03:56:44.187Z,120.00
2019-05-25T03:57:44.171Z,124.00
2019-05-25T03:58:44.160Z,120.00
2019-05-25T03:59:44.147Z,116.00
2019-05-25T04:00:44.192Z,112.00
2019-05-25T04:01:44.130Z,112.00
2019-05-25T04:02:44.152Z,112.00
2019-05-25T04:03:44.110Z,108.00
2019-05-25T04:04:44.107Z,104.00
2019-05-25T04:05:44.095Z,100.00
2019-05-25T04:06:44.097Z,92.00
2019-05-25T04:07:44.072Z,88.00
2019-05-25T04:08:44.056Z,92.00
2019-05-25T04:09:44.041Z,92.00
2019-05-25T04:10:44.052Z,104.00
2019-05-25T04:11:54.643Z,104.00
2019-05-25T04:12:44.011Z,100.00
2019-05-25T04:13:43.990Z,96.00
2019-05-25T04:14:43.980Z,92.00
2019-05-25T04:15:43.978Z,96.00
2019-05-25T04:16:43.970Z,108.00
2019-05-25T04:17:43.960Z,120.00
2019-05-25T04:18:43.931Z,132.00
2019-05-25T04:19:43.942Z,140.00
2019-05-25T04:20:43.920Z,140.00
2019-05-25T04:21:43.901Z,140.00
2019-05-25T04:22:43.910Z,144.00
2019-05-25T04:23:43.892Z,144.00
2019-05-25T04:24:43.871Z,136.00
2019-05-25T04:25:43.861Z,128.00
2019-05-25T04:26:43.854Z,116.00
2019-05-25T04:27:43.883Z,112.00
2019-05-25T04:28:43.834Z,108.00
2019-05-25T04:29:43.833Z,112.00
2019-05-25T04:30:43.874Z,88.00
2019-05-25T04:31:43.791Z,80.00
2019-05-25T04:32:43.801Z,80.00
2019-05-25T04:33:43.802Z,72.00
2019-05-25T04:34:43.762Z,72.00
2019-05-25T04:35:43.763Z,80.00
2019-05-25T04:36:43.772Z,104.00
2019-05-25T04:37:43.745Z,144.00
2019-05-25T04:38:43.801Z,176.00
2019-05-25T04:39:43.713Z,180.00
2019-05-25T04:40:43.702Z,180.00
2019-05-25T04:41:43.701Z,176.00
2019-05-25T04:42:54.065Z,180.00
2019-05-25T04:43:43.683Z,180.00
2019-05-25T04:44:43.678Z,188.00
2019-05-25T04:45:43.644Z,192.00
2019-05-25T04:46:43.643Z,196.00
2019-05-25T04:47:43.633Z,204.00
2019-05-25T04:48:43.626Z,216.00
2019-05-25T04:49:43.655Z,176.00
2019-05-25T04:50:43.594Z,140.00
2019-05-25T04:51:43.654Z,172.00
2019-05-25T04:52:43.564Z,188.00
2019-05-25T04:53:43.555Z,200.00
2019-05-25T04:54:43.546Z,184.00
2019-05-25T04:55:43.555Z,188.00
2019-05-25T04:56:43.525Z,200.00
2019-05-25T04:57:43.517Z,200.00
2019-05-25T04:58:43.543Z,212.00
2019-05-25T04:59:43.572Z,228.00
2019-05-25T05:00:43.507Z,248.00
2019-05-25T05:01:43.465Z,288.00
2019-05-25T05:02:43.455Z,344.00
2019-05-25T05:03:43.445Z,364.00
2019-05-25T05:04:43.443Z,364.00
2019-05-25T05:05:43.478Z,344.00
2019-05-25T05:06:43.431Z,332.00
2019-05-25T05:07:43.408Z,328.00
2019-05-25T05:08:43.405Z,300.00
2019-05-25T05:09:43.388Z,252.00
2019-05-25T05:10:43.379Z,204.00
2019-05-25T05:11:43.375Z,168.00
2019-05-25T05:12:43.358Z,152.00
2019-05-25T05:13:53.821Z,148.00
2019-05-25T05:14:43.348Z,144.00
2019-05-25T05:15:43.333Z,136.00
2019-05-25T05:16:43.322Z,140.00
2019-05-25T05:17:43.301Z,152.00
2019-05-25T05:18:43.281Z,172.00
2019-05-25T05:19:43.284Z,208.00
2019-05-25T05:20:43.273Z,212.00
2019-05-25T05:21:43.252Z,180.00
2019-05-25T05:22:43.339Z,144.00
2019-05-25T05:23:43.235Z,128.00
2019-05-25T05:24:43.212Z,128.00
2019-05-25T05:25:43.201Z,136.00
2019-05-25T05:26:55.328Z,152.00
2019-05-25T05:27:44.205Z,168.00
2019-05-25T05:28:43.175Z,192.00
2019-05-25T05:29:43.161Z,204.00
2019-05-25T05:30:43.209Z,208.00
2019-05-25T05:31:43.144Z,228.00
2019-05-25T05:32:43.145Z,240.00
2019-05-25T05:33:43.112Z,256.00
2019-05-25T05:34:43.102Z,276.00
2019-05-25T05:35:43.102Z,296.00
2019-05-25T05:36:43.092Z,304.00
2019-05-25T05:37:43.095Z,304.00
2019-05-25T05:38:43.075Z,296.00
2019-05-25T05:39:43.065Z,296.00
2019-05-25T05:40:43.033Z,316.00
2019-05-25T05:41:43.033Z,364.00
2019-05-25T05:42:43.058Z,452.00
2019-05-25T05:43:43.011Z,476.00
2019-05-25T05:44:52.970Z,548.00
2019-05-25T05:45:43.044Z,748.00
2019-05-25T05:46:42.987Z,488.00
2019-05-25T05:47:42.971Z,388.00
2019-05-25T05:48:42.963Z,404.00
2019-05-25T05:49:42.957Z,368.00
2019-05-25T05:50:42.944Z,344.00
2019-05-25T05:51:42.932Z,348.00
2019-05-25T05:52:42.922Z,336.00
2019-05-25T05:53:42.912Z,364.00
2019-05-25T05:54:42.891Z,376.00
2019-05-25T05:55:42.873Z,412.00
2019-05-25T05:56:42.884Z,384.00
2019-05-25T05:57:42.860Z,384.00
2019-05-25T05:58:42.894Z,400.00
2019-05-25T05:59:42.834Z,396.00
2019-05-25T06:00:42.826Z,380.00
2019-05-25T06:01:42.812Z,368.00
2019-05-25T06:02:42.812Z,360.00
2019-05-25T06:03:42.799Z,348.00
2019-05-25T06:04:42.781Z,352.00
2019-05-25T06:05:42.773Z,364.00
2019-05-25T06:06:42.773Z,344.00
2019-05-25T06:07:42.762Z,312.00
2019-05-25T06:08:42.773Z,288.00
2019-05-25T06:09:42.725Z,276.00
2019-05-25T06:10:42.726Z,280.00
2019-05-25T06:11:42.703Z,276.00
2019-05-25T06:12:42.692Z,280.00
2019-05-25T06:13:42.683Z,304.00
2019-05-25T06:14:42.685Z,324.00
2019-05-25T06:15:56.056Z,344.00
2019-05-25T06:16:42.642Z,348.00
2019-05-25T06:17:42.632Z,348.00
2019-05-25T06:18:42.622Z,352.00
2019-05-25T06:19:42.621Z,368.00
2019-05-25T06:20:42.616Z,376.00
2019-05-25T06:21:42.614Z,376.00
2019-05-25T06:22:42.582Z,356.00
2019-05-25T06:23:42.578Z,328.00
2019-05-25T06:24:42.567Z,304.00
2019-05-25T06:25:42.587Z,284.00
2019-05-25T06:26:42.555Z,268.00
2019-05-25T06:27:42.535Z,276.00
2019-05-25T06:28:42.563Z,276.00
2019-05-25T06:29:42.513Z,280.00
2019-05-25T06:30:42.503Z,288.00
2019-05-25T06:31:42.517Z,296.00
2019-05-25T06:32:42.475Z,292.00
2019-05-25T06:33:42.474Z,284.00
2019-05-25T06:34:42.445Z,272.00
2019-05-25T06:35:42.456Z,272.00
2019-05-25T06:36:42.442Z,272.00
2019-05-25T06:37:42.414Z,264.00
2019-05-25T06:38:42.416Z,252.00
2019-05-25T06:39:42.394Z,244.00
2019-05-25T06:40:42.407Z,236.00
2019-05-25T06:41:42.452Z,236.00
2019-05-25T06:42:42.385Z,240.00
2019-05-25T06:43:42.364Z,244.00
2019-05-25T06:44:42.346Z,264.00
2019-05-25T06:45:42.325Z,264.00
2019-05-25T06:46:53.161Z,272.00
2019-05-25T06:47:42.355Z,296.00
2019-05-25T06:48:42.297Z,328.00
2019-05-25T06:49:42.299Z,344.00
2019-05-25T06:50:42.276Z,332.00
2019-05-25T06:51:42.301Z,336.00
2019-05-25T06:52:42.259Z,380.00
2019-05-25T06:53:42.293Z,380.00
2019-05-25T06:54:42.247Z,296.00
2019-05-25T06:55:42.240Z,260.00
2019-05-25T06:56:42.218Z,224.00
2019-05-25T06:57:43.891Z,200.00
2019-05-25T06:58:42.200Z,184.00
2019-05-25T06:59:42.200Z,168.00
2019-05-25T07:00:42.178Z,148.00
2019-05-25T07:01:42.158Z,144.00
2019-05-25T07:02:42.163Z,144.00
2019-05-25T07:03:42.138Z,148.00
2019-05-25T07:04:42.143Z,152.00
2019-05-25T07:05:42.131Z,168.00
2019-05-25T07:06:42.190Z,184.00
2019-05-25T07:07:42.099Z,220.00
2019-05-25T07:08:42.092Z,252.00
2019-05-25T07:09:42.079Z,284.00
2019-05-25T07:10:42.080Z,328.00
2019-05-25T07:11:42.064Z,372.00
2019-05-25T07:12:42.039Z,404.00
2019-05-25T07:13:42.042Z,428.00
2019-05-25T07:14:42.108Z,436.00
2019-05-25T07:15:42.061Z,428.00
2019-05-25T07:16:42.012Z,404.00
2019-05-25T07:17:52.382Z,364.00
2019-05-25T07:18:41.980Z,340.00
2019-05-25T07:19:41.974Z,336.00
2019-05-25T07:20:41.962Z,308.00
2019-05-25T07:21:41.964Z,276.00
2019-05-25T07:22:41.946Z,248.00
2019-05-25T07:23:41.924Z,220.00
2019-05-25T07:24:41.912Z,200.00
2019-05-25T07:25:41.913Z,200.00
2019-05-25T07:26:41.901Z,204.00
2019-05-25T07:27:57.907Z,208.00
2019-05-25T07:28:42.883Z,216.00
2019-05-25T07:29:41.851Z,232.00
2019-05-25T07:30:41.852Z,240.00
2019-05-25T07:31:41.867Z,252.00
2019-05-25T07:32:41.833Z,260.00
2019-05-25T07:33:41.823Z,268.00
2019-05-25T07:34:41.816Z,272.00
2019-05-25T07:35:41.794Z,276.00
2019-05-25T07:36:41.782Z,280.00
2019-05-25T07:37:41.783Z,284.00
2019-05-25T07:38:41.753Z,300.00
2019-05-25T07:39:41.755Z,316.00
2019-05-25T07:40:41.815Z,328.00
2019-05-25T07:41:41.734Z,336.00
2019-05-25T07:42:41.723Z,364.00
2019-05-25T07:43:41.725Z,388.00
2019-05-25T07:44:41.693Z,404.00
2019-05-25T07:45:41.699Z,420.00
2019-05-25T07:46:41.687Z,432.00
2019-05-25T07:47:41.687Z,444.00
2019-05-25T07:48:52.187Z,456.00
2019-05-25T07:49:41.658Z,444.00
2019-05-25T07:50:41.645Z,420.00
2019-05-25T07:51:41.616Z,384.00
2019-05-25T07:52:41.620Z,368.00
2019-05-25T07:53:41.608Z,368.00
2019-05-25T07:54:41.606Z,388.00
2019-05-25T07:55:41.591Z,408.00
2019-05-25T07:56:41.581Z,424.00
2019-05-25T07:57:41.616Z,424.00
2019-05-25T07:58:41.562Z,424.00
2019-05-25T07:59:41.561Z,424.00
2019-05-25T08:00:41.527Z,420.00
2019-05-25T08:01:41.516Z,408.00
2019-05-25T08:02:41.499Z,416.00
2019-05-25T08:03:41.497Z,400.00
2019-05-25T08:04:41.491Z,384.00
2019-05-25T08:05:41.487Z,372.00
2019-05-25T08:06:41.468Z,360.00
2019-05-25T08:07:41.456Z,344.00
2019-05-25T08:08:41.439Z,336.00
2019-05-25T08:09:41.418Z,328.00
2019-05-25T08:10:41.418Z,336.00
2019-05-25T08:11:41.422Z,344.00
2019-05-25T08:12:41.401Z,356.00
2019-05-25T08:13:41.389Z,364.00
2019-05-25T08:14:44.857Z,380.00
2019-05-25T08:15:41.373Z,396.00
2019-05-25T08:16:41.391Z,420.00
2019-05-25T08:17:41.340Z,448.00
2019-05-25T08:18:41.350Z,472.00
2019-05-25T08:19:53.421Z,492.00
2019-05-25T08:20:41.353Z,504.00
2019-05-25T08:21:41.299Z,492.00
2019-05-25T08:22:41.339Z,460.00
2019-05-25T08:23:41.271Z,428.00
2019-05-25T08:24:41.273Z,404.00
2019-05-25T08:25:41.266Z,400.00
2019-05-25T08:26:41.256Z,400.00
2019-05-25T08:27:41.235Z,404.00
2019-05-25T08:28:41.238Z,412.00
2019-05-25T08:29:41.226Z,424.00
2019-05-25T08:30:41.296Z,436.00
2019-05-25T08:31:41.197Z,444.00
2019-05-25T08:32:41.182Z,460.00
2019-05-25T08:33:41.169Z,488.00
2019-05-25T08:34:41.174Z,496.00
2019-05-25T08:35:41.149Z,500.00
2019-05-25T08:36:41.162Z,496.00
2019-05-25T08:37:41.122Z,520.00
2019-05-25T08:38:41.116Z,576.00
2019-05-25T08:39:41.092Z,636.00
2019-05-25T08:40:41.103Z,688.00
2019-05-25T08:41:41.088Z,648.00
2019-05-25T08:42:41.114Z,724.00
2019-05-25T08:43:41.112Z,656.00
2019-05-25T08:44:41.042Z,780.00
2019-05-25T08:45:41.054Z,736.00
2019-05-25T08:46:41.041Z,660.00
2019-05-25T08:47:41.022Z,616.00
2019-05-25T08:48:41.035Z,608.00
2019-05-25T08:49:41.013Z,540.00
2019-05-25T08:50:51.033Z,492.00
2019-05-25T08:51:40.978Z,440.00
2019-05-25T08:52:40.979Z,376.00
2019-05-25T08:53:42.274Z,340.00
2019-05-25T08:54:40.945Z,340.00
2019-05-25T08:55:40.929Z,372.00
2019-05-25T08:56:40.920Z,428.00
2019-05-25T08:57:40.905Z,576.00
2019-05-25T08:58:48.446Z,1044.00
2019-05-25T08:59:41.875Z,1212.00
2019-05-25T09:00:40.884Z,1420.00
2019-05-25T09:01:40.864Z,1392.00
2019-05-25T09:02:40.848Z,836.00
2019-05-25T09:03:40.839Z,984.00
2019-05-25T09:04:40.846Z,856.00
2019-05-25T09:05:40.873Z,904.00
2019-05-25T09:06:40.842Z,752.00
2019-05-25T09:07:40.860Z,752.00
2019-05-25T09:08:40.875Z,708.00
2019-05-25T09:09:40.787Z,604.00
2019-05-25T09:10:40.760Z,628.00
2019-05-25T09:11:40.754Z,608.00
2019-05-25T09:12:40.758Z,584.00
2019-05-25T09:13:40.748Z,596.00
2019-05-25T09:14:40.741Z,620.00
2019-05-25T09:15:40.728Z,664.00
2019-05-25T09:16:40.697Z,676.00
2019-05-25T09:17:40.690Z,640.00
2019-05-25T09:18:40.677Z,620.00
2019-05-25T09:19:40.666Z,552.00
2019-05-25T09:20:40.701Z,512.00
2019-05-25T09:22:01.987Z,484.00
2019-05-25T09:22:41.648Z,472.00
2019-05-25T09:23:40.631Z,476.00
2019-05-25T09:24:40.617Z,476.00
2019-05-25T09:25:40.608Z,464.00
2019-05-25T09:26:40.607Z,460.00
2019-05-25T09:27:40.577Z,444.00
2019-05-25T09:28:40.581Z,428.00
2019-05-25T09:29:40.548Z,424.00
2019-05-25T09:30:40.550Z,424.00
2019-05-25T09:31:40.541Z,416.00
2019-05-25T09:32:40.556Z,412.00
2019-05-25T09:33:40.511Z,400.00
2019-05-25T09:34:40.522Z,388.00
2019-05-25T09:35:40.503Z,376.00
2019-05-25T09:36:40.487Z,360.00
2019-05-25T09:37:40.482Z,344.00
2019-05-25T09:38:43.226Z,324.00
2019-05-25T09:39:40.465Z,288.00
2019-05-25T09:40:40.455Z,252.00
2019-05-25T09:41:40.430Z,240.00
2019-05-25T09:42:40.613Z,232.00
2019-05-25T09:43:40.422Z,228.00
2019-05-25T09:44:40.392Z,228.00
2019-05-25T09:45:40.381Z,220.00
2019-05-25T09:46:40.400Z,204.00
2019-05-25T09:47:40.387Z,184.00
2019-05-25T09:48:40.355Z,152.00
2019-05-25T09:49:40.394Z,128.00
2019-05-25T09:50:40.330Z,112.00
2019-05-25T09:51:40.322Z,116.00
2019-05-25T09:52:50.810Z,120.00
2019-05-25T09:53:40.296Z,124.00
2019-05-25T09:54:40.291Z,136.00
2019-05-25T09:55:40.291Z,152.00
2019-05-25T09:56:40.275Z,172.00
2019-05-25T09:57:41.719Z,184.00
2019-05-25T09:58:40.274Z,196.00
2019-05-25T09:59:40.232Z,196.00
2019-05-25T10:00:40.669Z,184.00
2019-05-25T10:01:40.225Z,164.00
2019-05-25T10:02:40.406Z,148.00
2019-05-25T10:03:40.182Z,140.00
2019-05-25T10:04:40.209Z,148.00
2019-05-25T10:05:40.183Z,164.00
2019-05-25T10:06:40.163Z,184.00
2019-05-25T10:07:40.141Z,196.00
2019-05-25T10:08:40.144Z,204.00
2019-05-25T10:09:40.382Z,208.00
2019-05-25T10:10:40.114Z,212.00
2019-05-25T10:11:40.112Z,228.00
2019-05-25T10:12:40.944Z,236.00
2019-05-25T10:13:40.127Z,248.00
2019-05-25T10:14:40.064Z,256.00
2019-05-25T10:15:40.067Z,264.00
2019-05-25T10:16:40.055Z,264.00
2019-05-25T10:17:40.045Z,252.00
2019-05-25T10:18:40.015Z,228.00
2019-05-25T10:19:40.055Z,200.00
2019-05-25T10:20:40.014Z,172.00
2019-05-25T10:21:39.995Z,152.00
2019-05-25T10:22:39.986Z,128.00
2019-05-25T10:23:50.005Z,112.00
2019-05-25T10:24:39.955Z,96.00
2019-05-25T10:25:39.977Z,84.00
2019-05-25T10:26:39.950Z,76.00
2019-05-25T10:27:39.937Z,76.00
2019-05-25T10:28:39.925Z,76.00
2019-05-25T10:29:39.918Z,84.00
2019-05-25T10:30:39.895Z,104.00
2019-05-25T10:31:39.886Z,128.00
2019-05-25T10:32:39.866Z,160.00
2019-05-25T10:33:39.868Z,200.00
2019-05-25T10:34:39.859Z,232.00
2019-05-25T10:35:40.156Z,248.00
2019-05-25T10:36:39.842Z,244.00
2019-05-25T10:37:39.826Z,224.00
2019-05-25T10:38:39.819Z,196.00
2019-05-25T10:39:39.810Z,172.00
2019-05-25T10:40:39.790Z,148.00
2019-05-25T10:41:39.790Z,124.00
2019-05-25T10:42:39.770Z,116.00
2019-05-25T10:43:39.759Z,124.00
2019-05-25T10:44:39.755Z,140.00
2019-05-25T10:45:39.737Z,148.00
2019-05-25T10:46:39.747Z,140.00
2019-05-25T10:47:39.720Z,136.00
2019-05-25T10:48:39.712Z,136.00
2019-05-25T10:49:39.688Z,136.00
2019-05-25T10:50:39.680Z,136.00
2019-05-25T10:51:39.675Z,128.00
2019-05-25T10:52:39.673Z,112.00
2019-05-25T10:53:39.657Z,96.00
2019-05-25T10:54:49.569Z,80.00
2019-05-25T10:55:39.631Z,72.00
2019-05-25T10:56:39.609Z,60.00
2019-05-25T10:57:39.671Z,52.00
2019-05-25T10:58:39.601Z,36.00
2019-05-25T10:59:51.828Z,28.00
2019-05-25T11:00:40.559Z,20.00
2019-05-25T11:01:39.593Z,20.00
2019-05-25T11:02:39.561Z,20.00
2019-05-25T11:03:39.570Z,20.00
2019-05-25T11:04:39.519Z,20.00
2019-05-25T11:05:39.522Z,20.00
2019-05-25T11:06:39.516Z,20.00
2019-05-25T11:07:39.500Z,24.00
2019-05-25T11:08:39.487Z,28.00
2019-05-25T11:09:39.482Z,36.00
2019-05-25T11:10:39.460Z,44.00
2019-05-25T11:11:39.470Z,56.00
2019-05-25T11:12:39.440Z,60.00
2019-05-25T11:13:39.429Z,60.00
2019-05-25T11:14:39.430Z,64.00
2019-05-25T11:15:39.411Z,68.00
2019-05-25T11:16:39.403Z,88.00
2019-05-25T11:17:39.412Z,116.00
2019-05-25T11:18:39.399Z,152.00
2019-05-25T11:19:39.415Z,184.00
2019-05-25T11:20:39.373Z,204.00
2019-05-25T11:21:39.341Z,212.00
2019-05-25T11:22:39.330Z,224.00
2019-05-25T11:23:39.337Z,224.00
2019-05-25T11:24:39.318Z,228.00
2019-05-25T11:25:49.530Z,248.00
2019-05-25T11:26:39.304Z,260.00
2019-05-25T11:27:39.283Z,276.00
2019-05-25T11:28:39.274Z,300.00
2019-05-25T11:29:39.265Z,324.00
2019-05-25T11:30:39.293Z,340.00
2019-05-25T11:31:39.253Z,348.00
2019-05-25T11:32:39.223Z,356.00
2019-05-25T11:33:39.205Z,368.00
2019-05-25T11:34:39.201Z,356.00
2019-05-25T11:35:39.205Z,344.00
2019-05-25T11:36:39.232Z,344.00
2019-05-25T11:37:39.175Z,372.00
2019-05-25T11:38:39.153Z,412.00
2019-05-25T11:39:39.155Z,444.00
2019-05-25T11:40:39.134Z,368.00
2019-05-25T11:41:39.145Z,288.00
2019-05-25T11:42:39.154Z,240.00
2019-05-25T11:43:39.104Z,216.00
2019-05-25T11:44:39.105Z,196.00
2019-05-25T11:45:39.086Z,184.00
2019-05-25T11:46:39.087Z,172.00
2019-05-25T11:47:39.055Z,160.00
2019-05-25T11:48:39.055Z,140.00
2019-05-25T11:49:39.047Z,124.00
2019-05-25T11:50:39.036Z,116.00
2019-05-25T11:51:39.036Z,104.00
2019-05-25T11:52:39.149Z,92.00
2019-05-25T11:53:39.017Z,88.00
2019-05-25T11:54:38.984Z,88.00
2019-05-25T11:55:38.976Z,84.00
2019-05-25T11:56:49.328Z,84.00
2019-05-25T11:57:38.957Z,80.00
2019-05-25T11:58:46.984Z,80.00
2019-05-25T11:59:39.928Z,80.00
2019-05-25T12:00:38.938Z,80.00
2019-05-25T12:01:38.925Z,80.00
2019-05-25T12:02:38.888Z,80.00
2019-05-25T12:03:38.889Z,84.00
2019-05-25T12:04:38.920Z,80.00
2019-05-25T12:05:38.873Z,80.00
2019-05-25T12:06:38.858Z,76.00
2019-05-25T12:07:38.866Z,72.00
2019-05-25T12:08:38.828Z,68.00
2019-05-25T12:09:38.842Z,72.00
2019-05-25T12:10:38.818Z,68.00
2019-05-25T12:11:38.798Z,68.00
2019-05-25T12:12:38.811Z,68.00
2019-05-25T12:13:38.791Z,64.00
2019-05-25T12:14:38.808Z,72.00
2019-05-25T12:15:38.761Z,76.00
2019-05-25T12:16:38.759Z,84.00
2019-05-25T12:17:38.729Z,92.00
2019-05-25T12:18:38.729Z,96.00
2019-05-25T12:19:38.720Z,96.00
2019-05-25T12:20:38.731Z,92.00
2019-05-25T12:21:38.692Z,88.00
2019-05-25T12:22:38.690Z,80.00
2019-05-25T12:23:38.672Z,68.00
2019-05-25T12:24:38.661Z,64.00
2019-05-25T12:25:38.651Z,60.00
2019-05-25T12:26:38.688Z,60.00
2019-05-25T12:27:49.839Z,56.00
2019-05-25T12:28:38.634Z,56.00
2019-05-25T12:29:38.618Z,52.00
2019-05-25T12:30:41.104Z,48.00
2019-05-25T12:31:38.582Z,44.00
2019-05-25T12:32:38.596Z,40.00
2019-05-25T12:33:38.564Z,36.00
2019-05-25T12:34:38.553Z,40.00
2019-05-25T12:35:38.555Z,40.00
2019-05-25T12:36:38.575Z,40.00
2019-05-25T12:37:38.521Z,40.00
2019-05-25T12:38:38.513Z,36.00
2019-05-25T12:39:38.496Z,40.00